Time;durP1;ratioP1;P1;durP2;ratioP2;P2;SDS_P1;SDS_P2;PMS_P1;PMS_P2;Temp;Humidity;BMP_temperature;BMP_pressure;BME280_temperature;BME280_humidity;BME280_pressure;Samples;Min_cycle;Max_cycle;Signal;HPM_P1;HPM_P2
2022/08/19 00:01:21;;;;;;;5.37;5.10;;;;;;;27.00;60.70;98918.69;5144214;27;20208;-68
2022/08/19 00:03:49;;;;;;;5.50;5.00;;;;;;;27.03;60.74;98917.53;5138234;27;20241;-68
2022/08/19 00:06:16;;;;;;;6.60;5.87;;;;;;;27.01;61.52;98912.41;5147280;27;20304;-68
2022/08/19 00:08:44;;;;;;;5.30;5.00;;;;;;;27.02;61.91;98911.44;5142442;27;20201;-68
2022/08/19 00:11:12;;;;;;;5.87;5.57;;;;;;;26.99;62.27;98906.50;5142935;27;20650;-68
2022/08/19 00:13:39;;;;;;;5.63;5.37;;;;;;;26.91;62.20;98908.31;5144784;27;20201;-68
2022/08/19 00:16:06;;;;;;;5.67;5.27;;;;;;;26.84;62.34;98908.13;5140477;27;20189;-67
2022/08/19 00:18:33;;;;;;;6.03;5.63;;;;;;;26.89;62.73;98916.34;5141766;27;20198;-68
2022/08/19 00:21:03;;;;;;;6.07;5.50;;;;;;;26.81;62.36;98913.72;5143878;27;20242;-68
2022/08/19 00:23:29;;;;;;;5.33;5.07;;;;;;;26.61;62.38;98901.78;5137846;27;20946;-68
2022/08/19 00:25:56;;;;;;;5.63;5.40;;;;;;;26.48;62.59;98894.34;5143159;27;20224;-68
2022/08/19 00:28:23;;;;;;;5.83;5.53;;;;;;;26.47;63.31;98907.63;5145995;27;20189;-68
2022/08/19 00:30:53;;;;;;;5.47;5.07;;;;;;;26.38;63.22;98905.97;5149411;27;20576;-68
2022/08/19 00:33:19;;;;;;;4.87;4.57;;;;;;;26.29;63.67;98904.28;5139363;27;20225;-68
2022/08/19 00:35:46;;;;;;;5.33;5.03;;;;;;;26.24;63.79;98899.47;5136505;27;20227;-68
2022/08/19 00:38:15;;;;;;;4.87;4.57;;;;;;;26.22;64.24;98890.94;5141744;27;20202;-68
2022/08/19 00:40:46;;;;;;;4.87;4.67;;;;;;;26.16;64.01;98885.47;5146394;27;20279;-68
2022/08/19 00:43:14;;;;;;;5.63;5.10;;;;;;;26.18;64.47;98892.22;5136019;27;20190;-68
2022/08/19 00:45:43;;;;;;;4.50;4.30;;;;;;;26.13;64.43;98886.59;5144765;27;20206;-68
2022/08/19 00:48:10;;;;;;;4.47;4.20;;;;;;;26.19;64.83;98888.63;5144596;27;20200;-68
2022/08/19 00:50:38;;;;;;;4.80;4.60;;;;;;;26.16;64.49;98893.34;5146821;27;20204;-68
2022/08/19 00:53:05;;;;;;;5.40;5.10;;;;;;;25.99;66.16;98900.31;5139610;27;20696;-68
2022/08/19 00:55:34;;;;;;;4.73;4.53;;;;;;;25.93;65.66;98890.44;5139681;27;20593;-67
2022/08/19 00:58:07;;;;;;;5.60;5.17;;;;;;;25.86;66.19;98884.97;5140879;27;20198;-68
2022/08/19 01:00:36;;;;;;;5.10;4.80;;;;;;;25.66;66.96;98878.28;5147709;27;20729;-67
2022/08/19 01:03:04;;;;;;;5.70;5.30;;;;;;;25.63;67.25;98878.59;5141933;27;20190;-68
2022/08/19 01:05:31;;;;;;;6.33;5.93;;;;;;;25.59;67.82;98866.75;5138328;27;20217;-68
2022/08/19 01:08:01;;;;;;;5.97;5.57;;;;;;;25.56;67.64;98861.81;5136558;27;20190;-67
2022/08/19 01:10:31;;;;;;;6.00;5.70;;;;;;;25.62;67.84;98878.75;5133293;27;20201;-68
2022/08/19 01:13:02;;;;;;;5.75;5.25;;;;;;;25.64;68.05;98884.66;5139588;27;20658;-68
2022/08/19 01:15:32;;;;;;;5.80;5.40;;;;;;;25.65;67.75;98876.66;5146336;27;20243;-67
2022/08/19 01:18:02;;;;;;;5.37;5.13;;;;;;;25.64;68.03;98877.63;5136052;27;20245;-68
2022/08/19 01:20:29;;;;;;;6.57;6.07;;;;;;;25.66;68.27;98878.28;5138518;27;20197;-68
2022/08/19 01:22:59;;;;;;;5.90;5.50;;;;;;;25.63;68.63;98870.72;5136280;27;20194;-67
2022/08/19 01:25:31;;;;;;;6.53;6.13;;;;;;;25.57;68.69;98869.53;5141269;27;20252;-66
2022/08/19 01:27:58;;;;;;;5.93;5.60;;;;;;;25.29;69.58;98898.66;5139706;27;20193;-66
2022/08/19 01:30:29;;;;;;;5.70;5.20;;;;;;;24.81;70.30;98898.97;5138683;27;25085;-67
2022/08/19 01:32:58;;;;;;;5.70;5.50;;;;;;;24.75;71.13;98900.38;5142131;27;20615;-66
2022/08/19 01:35:26;;;;;;;5.80;5.50;;;;;;;24.75;70.86;98907.44;5143288;27;20200;-67
2022/08/19 01:37:55;;;;;;;5.27;5.07;;;;;;;24.56;71.23;98908.34;5145643;27;20695;-67
2022/08/19 01:40:27;;;;;;;5.20;5.00;;;;;;;24.37;72.15;98908.47;5138464;27;20197;-66
2022/08/19 01:42:54;;;;;;;5.80;5.40;;;;;;;24.36;72.43;98909.44;5141312;27;20527;-67
2022/08/19 01:45:24;;;;;;;5.50;5.23;;;;;;;24.25;73.31;98904.38;5137500;27;20690;-67
2022/08/19 01:47:51;;;;;;;5.90;5.60;;;;;;;24.26;73.47;98917.34;5143485;27;20194;-67
2022/08/19 01:50:18;;;;;;;5.93;5.43;;;;;;;24.26;73.75;98919.13;5135315;27;20677;-67
2022/08/19 01:52:45;;;;;;;5.60;5.40;;;;;;;24.21;73.78;98916.09;5143043;27;20111;-67
2022/08/19 01:55:15;;;;;;;5.93;5.63;;;;;;;24.23;74.01;98916.81;5143811;27;20190;-68
2022/08/19 01:57:49;;;;;;;6.40;6.10;;;;;;;24.32;74.13;98926.41;5139319;27;20258;-67
2022/08/19 02:00:18;;;;;;;6.87;6.37;;;;;;;24.25;74.09;98926.16;5138419;27;20200;-67
2022/08/19 02:02:45;;;;;;;6.70;6.15;;;;;;;24.25;73.83;98926.16;5142042;27;20665;-68
2022/08/19 02:05:12;;;;;;;6.43;6.03;;;;;;;24.30;73.69;98928.34;5132527;27;20229;-68
2022/08/19 02:07:40;;;;;;;6.47;6.13;;;;;;;24.38;74.18;98931.06;5146406;27;20193;-68
2022/08/19 02:10:11;;;;;;;7.27;6.87;;;;;;;24.38;73.58;98926.66;5147598;27;20210;-67
2022/08/19 02:12:38;;;;;;;7.20;6.70;;;;;;;24.35;73.82;98928.75;5148431;27;20575;-67
2022/08/19 02:15:08;;;;;;;6.40;6.00;;;;;;;24.38;73.44;98931.91;5140202;27;20201;-67
2022/08/19 02:17:35;;;;;;;;;;;;;;;24.35;73.99;98931.38;5133698;27;20202;-66
2022/08/19 02:20:01;;;;;;;;;;;;;;;24.23;74.91;98933.34;5142158;27;19939;-67
2022/08/19 02:22:28;;;;;;;;;;;;;;;24.22;74.61;98931.69;5139690;27;19924;-67
2022/08/19 02:24:55;;;;;;;;;;;;;;;24.27;74.70;98936.50;5136719;27;20386;-68
2022/08/19 02:27:21;;;;;;;;;;;;;;;24.31;75.06;98935.25;5149304;27;19923;-67
2022/08/19 02:29:48;;;;;;;;;;;;;;;24.35;75.32;98937.44;5140615;27;19923;-67
2022/08/19 02:32:18;;;;;;;;;;;;;;;24.40;75.27;98944.84;5145129;27;19930;-67
2022/08/19 02:34:44;;;;;;;;;;;;;;;24.39;74.56;98943.22;5145394;27;19966;-67
2022/08/19 02:38:25;;;;;;;;;;;;;;;24.37;74.89;98950.38;5141196;27;19927;-67
2022/08/19 02:39:56;;;;;;;;;;;;;;;24.35;74.78;98958.41;5146785;27;20369;-67
2022/08/19 02:42:23;;;;;;;;;;;;;;;24.34;74.67;98961.16;5140626;27;19959;-67
2022/08/19 02:44:49;;;;;;;;;;;;;;;24.34;74.60;98953.28;5139313;27;19923;-68
2022/08/19 02:47:18;;;;;;;;;;;;;;;24.36;74.34;98954.78;5142446;27;19923;-67
2022/08/19 02:49:45;;;;;;;;;;;;;;;24.37;74.51;98966.94;5142232;27;19923;-67
2022/08/19 02:52:12;;;;;;;;;;;;;;;24.31;74.54;98964.88;5144544;27;20435;-67
2022/08/19 02:54:38;;;;;;;;;;;;;;;24.30;74.84;98962.41;5140629;27;19974;-67
2022/08/19 02:57:05;;;;;;;;;;;;;;;24.30;75.36;98965.00;5142591;27;19923;-68
2022/08/19 02:59:33;;;;;;;;;;;;;;;24.26;75.38;98969.75;5150189;27;19923;-67
2022/08/19 03:01:59;;;;;;;;;;;;;;;24.24;75.40;98962.97;5146986;27;19924;-67
2022/08/19 03:04:28;;;;;;;;;;;;;;;24.19;76.13;98962.59;5143982;27;19923;-68
2022/08/19 03:06:54;;;;;;;;;;;;;;;24.19;76.18;98967.81;5147040;27;19930;-68
2022/08/19 03:09:21;;;;;;;;;;;;;;;24.18;75.99;98966.16;5141264;27;19956;-67
2022/08/19 03:11:48;;;;;;;;;;;;;;;24.18;75.62;98972.22;5146507;27;20375;-67
2022/08/19 03:14:14;;;;;;;;;;;;;;;24.20;75.98;98974.72;5143071;27;19923;-67
2022/08/19 03:16:43;;;;;;;;;;;;;;;24.20;75.34;98975.53;5143554;27;19923;-68
2022/08/19 03:19:09;;;;;;;;;;;;;;;24.12;75.84;98978.03;5146688;27;19972;-67
2022/08/19 03:21:37;;;;;;;;;;;;;;;24.08;76.12;98976.63;5146601;27;19931;-68
2022/08/19 03:24:05;;;;;;;;;;;;;;;24.08;76.09;98981.03;5145600;27;19923;-68
2022/08/19 03:26:32;;;;;;;;;;;;;;;24.02;76.26;98979.81;5141580;27;19939;-67
2022/08/19 03:28:58;;;;;;;;;;;;;;;23.97;76.36;98985.47;5142411;27;19924;-68
2022/08/19 03:31:26;;;;;;;;;;;;;;;23.94;76.16;98985.75;5138391;27;19931;-67
2022/08/19 03:33:53;;;;;;;;;;;;;;;23.93;76.22;98989.34;5139012;27;20384;-67
2022/08/19 03:36:22;;;;;;;;;;;;;;;23.91;76.45;98991.28;5144178;27;20405;-67
2022/08/19 03:38:51;;;;;;;;;;;;;;;23.91;76.13;98993.09;5147605;27;19937;-67
2022/08/19 03:41:19;;;;;;;;;;;;;;;23.91;76.09;98988.66;5139470;27;19924;-67
2022/08/19 03:43:48;;;;;;;;;;;;;;;23.87;76.61;98989.94;5138491;27;20374;-67
2022/08/19 03:46:16;;;;;;;;;;;;;;;23.82;76.26;98991.28;5149800;27;19962;-67
2022/08/19 03:48:43;;;;;;;;;;;;;;;23.78;76.67;98990.72;5143611;27;19938;-67
2022/08/19 03:51:16;;;;;;;;;;;;;;;23.75;76.65;98998.88;5148169;27;19923;-68
2022/08/19 03:53:42;;;;;;;;;;;;;;;23.71;76.79;99002.75;5146520;27;19924;-68
2022/08/19 03:56:12;;;;;;;;;;;;;;;23.67;77.07;99013.63;5149147;27;19952;-67
2022/08/19 03:58:40;;;;;;;;;;;;;;;23.51;77.07;99014.19;5139579;27;19946;-67
2022/08/19 04:01:08;;;;;;;;;;;;;;;23.33;77.57;99011.34;5144766;27;19923;-67
2022/08/19 04:03:35;;;;;;;;;;;;;;;23.26;78.16;99009.44;5138904;27;19954;-67
2022/08/19 04:06:10;;;;;;;;;;;;;;;23.25;78.73;99013.00;5143364;27;19923;-68
2022/08/19 04:08:37;;;;;;;;;;;;;;;23.24;79.46;99006.13;5136964;27;19927;-67
2022/08/19 04:11:07;;;;;;;;;;;;;;;23.24;79.21;99020.03;5139931;27;19923;-67
2022/08/19 04:13:35;;;;;;;;;;;;;;;23.27;79.29;99018.91;5146466;27;19931;-67
2022/08/19 04:16:02;;;;;;;;;;;;;;;23.32;79.55;99021.97;5146404;27;19934;-67
2022/08/19 04:18:29;;;;;;;;;;;;;;;23.37;79.65;99022.38;5146163;27;19922;-67
2022/08/19 04:20:56;;;;;;;;;;;;;;;23.37;79.35;99011.91;5143244;27;20425;-67
2022/08/19 04:23:23;;;;;;;;;;;;;;;23.40;79.69;99027.38;5133972;27;20383;-67
2022/08/19 04:25:50;;;;;;;;;;;;;;;23.44;79.63;99018.28;5145406;27;20375;-67
2022/08/19 04:28:16;;;;;;;;;;;;;;;23.44;79.33;99015.69;5135703;27;20303;-67
2022/08/19 04:30:45;;;;;;;;;;;;;;;23.46;78.92;99016.34;5141686;27;19923;-67
2022/08/19 04:33:13;;;;;;;;;;;;;;;23.41;79.39;99021.19;5141449;27;19959;-67
2022/08/19 04:35:41;;;;;;;;;;;;;;;23.44;79.62;99023.53;5143140;27;19999;-67
2022/08/19 04:38:07;;;;;;;;;;;;;;;23.55;79.82;99026.03;5141409;27;20401;-67
2022/08/19 04:43:18;;;;;;;;;;;;;;;23.86;79.69;99019.69;5143635;27;20318;-67
2022/08/19 04:45:46;;;;;;;;;;;;;;;24.02;79.19;99019.94;5134075;27;19929;-67
2022/08/19 04:48:13;;;;;;;;;;;;;;;24.16;78.45;99012.63;5138096;27;20386;-67
2022/08/19 04:50:41;;;;;;;;;;;;;;;24.38;77.97;99017.53;5138850;27;20013;-67
2022/08/19 04:53:08;;;;;;;;;;;;;;;24.60;77.10;99021.59;5137365;27;20442;-68
2022/08/19 04:55:35;;;;;;;;;;;;;;;24.83;75.95;99023.75;5144596;27;19923;-67
2022/08/19 04:58:02;;;;;;;;;;;;;;;25.06;75.00;99025.00;5142208;27;19958;-67
2022/08/19 05:00:28;;;;;;;;;;;;;;;25.31;74.44;99027.88;5142099;27;20395;-68
2022/08/19 05:02:56;;;;;;;;;;;;;;;25.57;74.29;99026.22;5145664;27;19923;-68
2022/08/19 05:05:23;;;;;;;;;;;;;;;25.84;73.62;99028.75;5143544;27;19923;-67
2022/08/19 05:07:50;;;;;;;;;;;;;;;26.11;72.72;99033.88;5140608;27;19923;-68
2022/08/19 05:10:16;;;;;;;;;;;;;;;26.34;73.40;99036.03;5142206;27;19923;-67
2022/08/19 05:12:43;;;;;;;;;;;;;;;26.51;71.78;99022.84;5136553;27;19931;-68
2022/08/19 05:15:10;;;;;;;;;;;;;;;26.75;69.81;99040.56;5144591;27;19923;-68
2022/08/19 05:17:37;;;;;;;;;;;;;;;27.00;70.10;99038.88;5141192;27;19972;-68
2022/08/19 05:22:54;;;;;;;;;;;;;;;27.56;67.82;99043.50;5134297;27;20032;-68
2022/08/19 05:25:22;;;;;;;;;;;;;;;27.84;66.62;99044.84;5139986;27;19923;-68
2022/08/19 05:27:48;;;;;;;;;;;;;;;28.12;65.11;99043.53;5138390;27;19946;-68
2022/08/19 05:30:15;;;;;;;;;;;;;;;28.36;62.66;99036.59;5140531;27;19923;-68
2022/08/19 05:32:42;;;;;;;;;;;;;;;28.55;63.62;99037.03;5149512;27;19927;-68
2022/08/19 05:35:11;;;;;;;;;;;;;;;28.78;62.33;99044.25;5143986;27;19929;-68
2022/08/19 05:37:39;;;;;;;;;;;;;;;29.00;59.79;99039.03;5142966;27;19927;-68
2022/08/19 05:40:07;;;;;;;;;;;;;;;29.21;58.73;99046.34;5136240;27;19980;-68
2022/08/19 05:42:33;;;;;;;;;;;;;;;29.35;57.92;99050.09;5135687;27;19924;-68
2022/08/19 05:45:00;;;;;;;;;;;;;;;29.45;55.84;99053.34;5146959;27;20294;-68
2022/08/19 05:47:27;;;;;;;;;;;;;;;29.49;54.32;99049.38;5142174;27;19963;-68
2022/08/19 05:49:53;;;;;;;;;;;;;;;29.61;55.12;99042.69;5139131;27;20493;-68
2022/08/19 05:52:21;;;;;;;;;;;;;;;29.71;55.50;99038.00;5142286;27;20303;-68
2022/08/19 05:54:50;;;;;;;;;;;;;;;29.83;56.11;99048.97;5140794;27;19924;-68
2022/08/19 05:57:17;;;;;;;;;;;;;;;29.96;55.64;99041.28;5145167;27;19923;-68
2022/08/19 05:59:51;;;;;;;;;;;;;;;30.15;53.66;99052.19;5136695;27;19930;-68
2022/08/19 06:02:17;;;;;;;;;;;;;;;30.20;53.12;99043.72;5136549;27;19939;-69
2022/08/19 06:04:44;;;;;;;;;;;;;;;30.25;54.73;99043.16;5141472;27;19928;-69
2022/08/19 06:07:11;;;;;;;;;;;;;;;30.21;54.88;99048.81;5136295;27;20306;-68
2022/08/19 06:09:39;;;;;;;;;;;;;;;30.37;53.68;99049.69;5139382;27;19931;-69
2022/08/19 06:12:06;;;;;;;;;;;;;;;30.57;52.87;99048.16;5140386;27;19924;-69
2022/08/19 06:14:33;;;;;;;;;;;;;;;30.70;52.53;99056.28;5140871;27;19927;-69
2022/08/19 06:17:01;;;;;;;;;;;;;;;30.84;51.90;99052.81;5140422;27;20022;-70
2022/08/19 06:19:29;;;;;;;;;;;;;;;30.90;49.92;99057.38;5134203;27;19924;-70
2022/08/19 06:21:58;;;;;;;;;;;;;;;31.04;50.23;99064.53;5147479;27;19972;-69
2022/08/19 06:24:26;;;;;;;;;;;;;;;31.07;51.89;99058.84;5135300;27;19923;-69
2022/08/19 06:26:55;;;;;;;;;;;;;;;31.22;49.38;99064.94;5130429;27;20342;-69
2022/08/19 06:29:23;;;;;;;;;;;;;;;31.36;49.74;99065.09;5141439;27;19924;-69
2022/08/19 06:31:52;;;;;;;;;;;;;;;31.50;49.61;99064.28;5144172;27;19923;-69
2022/08/19 06:34:18;;;;;;;;;;;;;;;31.58;46.62;99069.44;5143966;27;20019;-70
2022/08/19 06:36:48;;;;;;;5.07;4.88;;;;;;;31.59;47.68;99063.13;5138008;27;20622;-72
2022/08/19 06:39:18;;;;;;;;;;;;;;;31.38;50.06;99061.25;5138327;27;20951;-65
2022/08/19 06:41:46;;;;;;;;;;;;;;;31.67;49.77;99068.31;5143160;27;20447;-66
2022/08/19 06:44:14;;;;;;;;;;;;;;;31.77;48.79;99071.47;5132718;27;19923;-66
2022/08/19 06:46:41;;;;;;;;;;;;;;;31.97;46.55;99075.13;5147535;27;19930;-65
2022/08/19 06:49:08;;;;;;;;;;;;;;;32.04;47.42;99056.66;5136872;27;19926;-66
2022/08/19 06:51:35;;;;;;;;;;;;;;;32.11;47.31;99061.00;5137764;27;20014;-66
2022/08/19 06:54:02;;;;;;;;;;;;;;;32.19;46.24;99060.84;5143953;27;19919;-66
2022/08/19 06:56:33;;;;;;;6.10;5.50;;;;;;;32.28;45.83;99063.38;5137072;27;19923;-67
2022/08/19 06:59:01;;;;;;;10.98;5.68;;;;;;;32.40;45.51;99045.91;5141123;27;20580;-66
2022/08/19 07:01:29;;;;;;;8.27;5.28;;;;;;;32.74;45.06;99061.84;5138519;27;20202;-66
2022/08/19 07:03:56;;;;;;;5.45;5.00;;;;;;;32.98;45.84;99072.00;5138858;27;20240;-66
2022/08/19 07:06:23;;;;;;;5.25;4.95;;;;;;;33.13;42.97;99075.34;5140730;27;20626;-66
2022/08/19 07:08:51;;;;;;;5.22;4.97;;;;;;;33.24;42.61;99061.50;5135090;27;20573;-66
2022/08/19 07:11:19;;;;;;;5.13;4.93;;;;;;;33.44;44.09;99066.06;5134924;27;20669;-66
2022/08/19 07:13:46;;;;;;;5.90;5.47;;;;;;;33.49;43.92;99064.44;5134929;27;20198;-66
2022/08/19 07:16:15;;;;;;;8.35;5.95;;;;;;;33.52;44.96;99060.56;5154974;27;20189;-66
2022/08/19 07:18:44;;;;;;;5.07;4.88;;;;;;;33.73;44.17;99060.44;5155274;27;20205;-66
2022/08/19 07:21:13;;;;;;;5.65;5.35;;;;;;;33.88;43.53;99053.06;5133718;27;20198;-66
2022/08/19 07:23:40;;;;;;;4.63;4.43;;;;;;;34.01;42.98;99039.78;5134472;27;20203;-66
2022/08/19 07:26:08;;;;;;;6.30;5.00;;;;;;;34.13;42.97;99050.66;5134619;27;20194;-66
2022/08/19 07:28:38;;;;;;;5.97;5.68;;;;;;;34.11;44.07;99050.88;5134539;27;20237;-66
2022/08/19 07:31:06;;;;;;;5.50;5.20;;;;;;;34.32;42.30;99062.28;5134461;27;20289;-66
2022/08/19 07:33:36;;;;;;;5.55;5.15;;;;;;;34.41;42.57;99058.41;5134530;27;20198;-66
2022/08/19 07:36:06;;;;;;;6.97;5.07;;;;;;;34.62;42.30;99060.84;5134312;27;20661;-66
2022/08/19 07:38:33;;;;;;;5.53;5.22;;;;;;;34.83;42.71;99057.94;5154306;27;20241;-66
2022/08/19 07:41:00;;;;;;;5.43;5.13;;;;;;;34.89;41.54;99041.13;5155205;27;20242;-66
2022/08/19 07:43:28;;;;;;;5.60;5.20;;;;;;;35.16;39.44;99053.31;5151291;27;20194;-66
2022/08/19 07:45:57;;;;;;;5.40;5.10;;;;;;;35.18;40.50;99056.59;5134020;27;20201;-66
2022/08/19 07:48:30;;;;;;;7.45;6.45;;;;;;;35.03;41.04;99050.66;5141124;27;20224;-66
2022/08/19 07:51:01;;;;;;;8.40;6.70;;;;;;;35.04;42.72;99048.81;5136094;27;20217;-67
2022/08/19 07:53:32;;;;;;;8.77;6.03;;;;;;;35.20;41.52;99051.88;5134076;27;20285;-66
2022/08/19 07:56:03;;;;;;;5.78;5.47;;;;;;;35.33;42.66;99050.97;5133950;27;20198;-67
2022/08/19 07:58:32;;;;;;;5.72;5.35;;;;;;;35.21;39.78;99050.84;5133414;27;20273;-66
2022/08/19 08:00:59;;;;;;;5.55;5.25;;;;;;;35.38;41.87;99048.50;5133162;27;20217;-66
2022/08/19 08:11:37;;;;;;;;;;;;;;;36.00;39.40;99053.00;5093456;28;19927;-66
2022/08/19 08:14:04;;;;;;;6.43;6.00;;;;;;;36.23;40.19;99045.25;5092670;28;19928;-66
2022/08/19 08:16:31;;;;;;;;;;;;;;;36.43;36.76;99046.91;5092860;28;20234;-66
2022/08/19 08:18:58;;;;;;;;;;;;;;;36.49;37.69;99049.50;5093120;28;20319;-67
2022/08/19 08:21:24;;;;;;;;;;;;;;;36.60;37.64;99039.97;5093233;28;20023;-67
2022/08/19 08:23:55;;;;;;;6.63;6.22;;;;;;;36.79;37.37;99045.09;5091732;28;19985;-67
2022/08/19 08:26:22;;;;;;;6.57;6.13;;;;;;;36.84;36.99;99041.75;5092591;28;20676;-66
2022/08/19 08:28:49;;;;;;;6.13;5.82;;;;;;;36.88;38.53;99040.25;5092539;28;20215;-66
2022/08/19 08:31:15;;;;;;;5.97;5.47;;;;;;;36.87;37.01;99040.50;5092404;28;20302;-66
2022/08/19 08:33:42;;;;;;;5.68;5.28;;;;;;;36.89;36.80;99022.38;5092299;28;20195;-66
2022/08/19 08:36:10;;;;;;;6.10;5.57;;;;;;;37.04;36.96;99039.69;5091744;28;20286;-66
2022/08/19 08:38:41;;;;;;;6.15;5.75;;;;;;;37.11;37.51;99043.09;5091894;28;20203;-66
2022/08/19 08:41:20;;;;;;;5.65;5.35;;;;;;;37.07;38.36;99025.88;5092229;28;20195;-66
2022/08/19 08:43:49;;;;;;;6.10;5.60;;;;;;;37.20;38.19;99025.69;5092108;28;20203;-67
2022/08/19 08:46:25;;;;;;;4.80;4.60;;;;;;;37.32;38.74;99015.84;5091917;28;20211;-66
2022/08/19 08:48:57;;;;;;;6.32;4.88;;;;;;;37.36;35.45;99024.22;5091240;28;20211;-67
2022/08/19 08:51:28;;;;;;;5.95;5.65;;;;;;;37.39;35.18;99017.59;5092042;28;20206;-66
2022/08/19 08:53:57;;;;;;;5.88;5.38;;;;;;;37.64;37.09;99029.00;5092009;28;20191;-67
2022/08/19 08:56:25;;;;;;;5.60;5.13;;;;;;;37.71;36.01;99022.50;5090942;28;20211;-67
2022/08/19 08:58:59;;;;;;;8.98;5.95;;;;;;;37.92;36.18;99018.50;5091583;28;20206;-67
2022/08/19 09:01:27;;;;;;;5.57;5.28;;;;;;;37.84;38.15;99024.94;5090265;28;20203;-67
2022/08/19 09:03:55;;;;;;;7.57;5.18;;;;;;;37.85;37.25;99012.41;5096577;27;20199;-64
2022/08/19 09:06:28;;;;;;;12.13;5.55;;;;;;;37.91;37.04;99006.16;5142393;27;20194;-64
2022/08/19 09:09:04;;;;;;;6.03;5.53;;;;;;;37.98;36.27;99017.56;5152957;27;20220;-64
2022/08/19 09:11:48;;;;;;;5.65;5.03;;;;;;;38.10;39.79;99007.66;5153440;27;20225;-66
2022/08/19 09:14:24;;;;;;;5.32;4.90;;;;;;;38.14;34.02;99011.50;5153076;27;20652;-65
2022/08/19 09:16:51;;;;;;;4.97;4.47;;;;;;;38.30;35.52;99002.78;5153045;27;20196;-65
2022/08/19 09:19:18;;;;;;;4.75;4.55;;;;;;;38.44;33.65;99005.22;5136338;27;20193;-65
2022/08/19 09:21:46;;;;;;;5.55;4.95;;;;;;;38.18;31.57;99001.97;5132616;27;20281;-65
2022/08/19 09:24:13;;;;;;;5.05;4.75;;;;;;;37.96;33.80;98998.25;5132227;27;20197;-65
2022/08/19 09:26:43;;;;;;;5.32;4.90;;;;;;;37.93;34.16;99000.56;5132392;27;20198;-66
2022/08/19 09:29:11;;;;;;;4.97;4.78;;;;;;;37.72;33.76;98997.38;5132298;27;20214;-65
2022/08/19 09:31:37;;;;;;;5.07;4.88;;;;;;;37.61;34.86;98989.34;5131982;27;21153;-65
2022/08/19 09:34:05;;;;;;;5.82;4.70;;;;;;;37.71;33.78;98984.22;5150878;27;20212;-66
2022/08/19 09:36:33;;;;;;;5.53;5.13;;;;;;;37.77;33.31;98994.00;5152616;27;20193;-65
2022/08/19 09:39:00;;;;;;;4.95;4.68;;;;;;;37.85;32.48;98985.63;5152381;27;20558;-65
2022/08/19 09:41:28;;;;;;;4.90;4.70;;;;;;;37.70;33.74;98972.72;5131980;27;20194;-65
2022/08/19 09:43:58;;;;;;;4.80;4.32;;;;;;;37.80;32.40;98982.84;5132038;27;20202;-66
2022/08/19 09:46:27;;;;;;;5.13;4.82;;;;;;;37.60;33.78;98991.19;5131869;27;20193;-66
2022/08/19 09:48:54;;;;;;;4.85;4.55;;;;;;;37.57;34.23;98980.13;5131980;27;20335;-66
2022/08/19 09:51:25;;;;;;;6.13;5.57;;;;;;;37.72;33.41;98985.84;5131924;27;20298;-66
2022/08/19 09:53:53;;;;;;;5.15;4.75;;;;;;;37.46;32.33;98975.56;5135187;27;20194;-66
2022/08/19 09:56:22;;;;;;;5.00;4.70;;;;;;;37.26;32.39;98971.31;5132818;27;20688;-66
2022/08/19 09:58:49;;;;;;;7.20;4.90;;;;;;;37.29;33.83;98976.19;5130240;27;20193;-66
2022/08/19 10:01:21;;;;;;;5.30;4.97;;;;;;;37.54;33.99;98975.25;5131571;27;20221;-66
2022/08/19 10:03:50;;;;;;;4.82;4.40;;;;;;;37.61;33.86;98978.63;5138937;27;20197;-66
2022/08/19 10:06:17;;;;;;;9.02;5.40;;;;;;;37.81;32.93;98963.88;5135202;27;20193;-66
2022/08/19 10:08:45;;;;;;;5.15;4.80;;;;;;;37.97;33.71;98962.38;5131427;27;20704;-66
2022/08/19 10:11:14;;;;;;;4.43;4.22;;;;;;;38.09;33.38;98960.53;5131831;27;20205;-66
2022/08/19 10:13:41;;;;;;;4.50;4.30;;;;;;;38.21;33.10;98955.16;5131811;27;20206;-66
2022/08/19 10:16:10;;;;;;;5.28;4.57;;;;;;;38.31;34.19;98958.88;5140284;27;20258;-66
2022/08/19 10:18:39;;;;;;;4.97;4.63;;;;;;;38.33;34.11;98951.41;5135122;27;20242;-66
2022/08/19 10:21:10;;;;;;;4.85;4.65;;;;;;;38.43;33.55;98950.84;5137994;27;20195;-66
2022/08/19 10:23:38;;;;;;;4.47;4.28;;;;;;;38.42;31.08;98945.72;5148783;27;20258;-67
2022/08/19 10:26:06;;;;;;;4.50;4.30;;;;;;;38.24;31.39;98944.81;5131413;27;20601;-66
2022/08/19 10:28:34;;;;;;;4.13;3.92;;;;;;;38.03;31.50;98928.53;5131554;27;20206;-66
2022/08/19 10:31:06;;;;;;;5.45;5.25;;;;;;;37.96;32.22;98936.69;5138108;27;20328;-66
2022/08/19 10:33:34;;;;;;;5.07;4.80;;;;;;;38.11;33.39;98938.88;5135637;27;20266;-66
2022/08/19 10:36:04;;;;;;;3.92;3.83;;;;;;;38.29;32.96;98936.06;5131014;27;20248;-66
2022/08/19 10:38:34;;;;;;;4.53;4.32;;;;;;;38.32;31.67;98914.97;5131220;27;20281;-66
2022/08/19 10:41:08;;;;;;;4.72;4.32;;;;;;;38.51;31.16;98941.63;5131366;27;20187;-66
2022/08/19 10:43:37;;;;;;;4.47;4.18;;;;;;;38.53;31.00;98939.53;5130343;27;20597;-66
2022/08/19 10:46:05;;;;;;;3.78;3.67;;;;;;;38.32;30.31;98916.84;5131209;27;20195;-66
2022/08/19 10:48:33;;;;;;;5.13;4.93;;;;;;;38.34;28.89;98934.31;5131237;27;20237;-66
2022/08/19 10:53:45;;;;;;;7.57;4.03;;;;;;;38.20;29.33;98927.56;5131856;27;20354;-66
2022/08/19 10:58:57;;;;;;;4.75;4.55;;;;;;;38.02;30.91;98921.53;5138184;27;20568;-66
2022/08/19 11:01:25;;;;;;;4.55;4.35;;;;;;;38.00;30.32;98924.44;5136523;27;20634;-66
2022/08/19 11:03:52;;;;;;;4.57;4.38;;;;;;;37.88;30.09;98920.94;5131164;27;20194;-66
2022/08/19 11:06:20;;;;;;;4.43;4.22;;;;;;;38.01;31.68;98918.06;5131373;27;20738;-66
2022/08/19 11:08:48;;;;;;;4.18;4.07;;;;;;;38.18;32.83;98916.28;5131369;27;20642;-66
2022/08/19 11:11:15;;;;;;;5.07;4.80;;;;;;;38.16;29.38;98907.66;5131242;27;20194;-66
2022/08/19 11:13:45;;;;;;;4.32;4.03;;;;;;;38.37;29.59;98908.13;5142046;27;20221;-66
2022/08/19 11:16:14;;;;;;;5.45;4.32;;;;;;;38.44;28.37;98895.41;5148347;27;20233;-66
2022/08/19 11:18:44;;;;;;;4.22;4.03;;;;;;;38.57;30.03;98901.31;5154459;27;20272;-66
2022/08/19 11:21:13;;;;;;;4.55;4.25;;;;;;;38.47;29.14;98913.69;5153242;27;20202;-65
2022/08/19 11:23:40;;;;;;;4.45;4.25;;;;;;;38.43;28.60;98907.16;5134781;27;20193;-66
2022/08/19 11:26:09;;;;;;;4.47;4.28;;;;;;;38.48;30.32;98900.06;5134496;27;20198;-66
2022/08/19 11:28:36;;;;;;;5.00;4.05;;;;;;;38.48;29.46;98900.06;5137521;27;20685;-66
2022/08/19 11:31:03;;;;;;;4.28;4.07;;;;;;;38.53;29.84;98902.84;5134397;27;20197;-66
2022/08/19 11:33:30;;;;;;;4.32;4.03;;;;;;;38.51;29.32;98893.41;5134581;27;20250;-66
2022/08/19 11:35:58;;;;;;;5.70;4.32;;;;;;;38.46;28.31;98896.78;5134439;27;20726;-67
2022/08/19 11:38:25;;;;;;;4.43;4.13;;;;;;;38.09;29.59;98880.22;5136344;27;20186;-66
2022/08/19 11:40:57;;;;;;;3.60;3.47;;;;;;;38.10;29.25;98889.03;5153918;27;20608;-66
2022/08/19 11:43:26;;;;;;;27.65;5.93;;;;;;;38.07;30.20;98879.63;5154967;27;20208;-66
2022/08/19 11:45:53;;;;;;;4.18;3.95;;;;;;;38.03;31.96;98880.34;5155117;27;20229;-66
2022/08/19 11:48:21;;;;;;;4.82;4.53;;;;;;;37.99;30.22;98871.97;5154950;27;20589;-65
2022/08/19 11:50:49;;;;;;;4.60;4.38;;;;;;;38.14;30.59;98877.66;5139318;27;20202;-66
2022/08/19 11:53:16;;;;;;;4.28;4.07;;;;;;;38.29;32.33;98875.25;5131532;27;20202;-66
2022/08/19 11:55:44;;;;;;;4.53;4.32;;;;;;;38.41;29.71;98869.91;5132469;27;20262;-66
2022/08/19 11:58:11;;;;;;;4.78;4.57;;;;;;;38.40;29.77;98875.50;5134523;27;20658;-67
2022/08/19 12:00:40;;;;;;;4.40;4.10;;;;;;;38.24;30.03;98860.97;5150262;27;20201;-66
2022/08/19 12:03:07;;;;;;;4.03;3.83;;;;;;;38.14;29.61;98871.47;5154176;27;20194;-66
2022/08/19 12:05:34;;;;;;;5.05;4.57;;;;;;;38.02;28.91;98855.44;5153986;27;20592;-67
2022/08/19 12:08:01;;;;;;;4.10;3.90;;;;;;;38.18;29.41;98857.38;5154431;27;20569;-67
2022/08/19 12:10:28;;;;;;;4.50;4.20;;;;;;;38.26;29.94;98858.84;5152188;27;20197;-66
2022/08/19 12:12:55;;;;;;;6.70;4.25;;;;;;;37.73;29.93;98843.00;5133250;27;20251;-66
2022/08/19 12:15:22;;;;;;;5.15;4.05;;;;;;;37.79;29.48;98853.59;5133845;27;20689;-66
2022/08/19 12:17:52;;;;;;;5.00;4.15;;;;;;;37.78;29.73;98851.13;5133751;27;20224;-66
2022/08/19 12:20:19;;;;;;;4.72;3.95;;;;;;;37.91;30.19;98848.25;5153898;27;20632;-67
2022/08/19 12:22:48;;;;;;;4.15;3.85;;;;;;;37.98;30.02;98848.94;5148505;27;20205;-67
2022/08/19 12:25:15;;;;;;;5.78;4.28;;;;;;;37.97;31.24;98839.25;5133668;27;20282;-66